sensor_id;sensor_type;location;lat;lon;timestamp;P1;durP1;ratioP1;P2;durP2;ratioP2
14874;SDS011;7529;48.170;17.138;2022-10-16T00:02:33;27.15;;;25.08;;
14874;SDS011;7529;48.170;17.138;2022-10-16T00:06:44;26.27;;;24.15;;
14874;SDS011;7529;48.170;17.138;2022-10-16T00:11:02;25.25;;;23.05;;
14874;SDS011;7529;48.170;17.138;2022-10-16T00:15:20;28.60;;;26.40;;
14874;SDS011;7529;48.170;17.138;2022-10-16T00:19:31;36.40;;;33.20;;
14874;SDS011;7529;48.170;17.138;2022-10-16T00:23:42;35.70;;;32.85;;
14874;SDS011;7529;48.170;17.138;2022-10-16T00:27:54;35.35;;;32.13;;
14874;SDS011;7529;48.170;17.138;2022-10-16T00:32:05;35.28;;;32.28;;
14874;SDS011;7529;48.170;17.138;2022-10-16T00:36:17;32.97;;;30.63;;
14874;SDS011;7529;48.170;17.138;2022-10-16T00:40:31;39.97;;;35.70;;
14874;SDS011;7529;48.170;17.138;2022-10-16T00:49:11;31.90;;;29.33;;
14874;SDS011;7529;48.170;17.138;2022-10-16T00:53:26;31.85;;;29.35;;
14874;SDS011;7529;48.170;17.138;2022-10-16T00:57:38;29.90;;;27.60;;
14874;SDS011;7529;48.170;17.138;2022-10-16T01:01:50;30.23;;;28.00;;
14874;SDS011;7529;48.170;17.138;2022-10-16T01:06:23;27.63;;;25.52;;
14874;SDS011;7529;48.170;17.138;2022-10-16T01:11:01;31.02;;;28.65;;
14874;SDS011;7529;48.170;17.138;2022-10-16T01:15:41;123.05;;;114.82;;
14874;SDS011;7529;48.170;17.138;2022-10-16T01:24:33;242.27;;;226.00;;
14874;SDS011;7529;48.170;17.138;2022-10-16T01:28:57;28.67;;;26.67;;
14874;SDS011;7529;48.170;17.138;2022-10-16T01:33:40;40.05;;;37.60;;
14874;SDS011;7529;48.170;17.138;2022-10-16T01:38:00;215.90;;;201.02;;
14874;SDS011;7529;48.170;17.138;2022-10-16T01:42:20;306.17;;;284.58;;
14874;SDS011;7529;48.170;17.138;2022-10-16T01:46:35;44.20;;;41.35;;
14874;SDS011;7529;48.170;17.138;2022-10-16T01:51:02;231.00;;;214.70;;
14874;SDS011;7529;48.170;17.138;2022-10-16T01:55:19;303.73;;;282.20;;
14874;SDS011;7529;48.170;17.138;2022-10-16T01:59:38;47.92;;;45.25;;
14874;SDS011;7529;48.170;17.138;2022-10-16T02:03:55;276.85;;;257.63;;
14874;SDS011;7529;48.170;17.138;2022-10-16T02:08:11;328.88;;;305.17;;
14874;SDS011;7529;48.170;17.138;2022-10-16T02:12:28;329.55;;;306.23;;
14874;SDS011;7529;48.170;17.138;2022-10-16T02:16:43;48.75;;;45.97;;
14874;SDS011;7529;48.170;17.138;2022-10-16T02:21:01;297.77;;;276.73;;
14874;SDS011;7529;48.170;17.138;2022-10-16T02:25:37;324.35;;;301.38;;
14874;SDS011;7529;48.170;17.138;2022-10-16T02:29:53;309.73;;;288.20;;
14874;SDS011;7529;48.170;17.138;2022-10-16T02:34:11;307.88;;;286.08;;
14874;SDS011;7529;48.170;17.138;2022-10-16T02:38:24;74.03;;;69.90;;
14874;SDS011;7529;48.170;17.138;2022-10-16T02:42:37;67.13;;;63.53;;
14874;SDS011;7529;48.170;17.138;2022-10-16T02:46:50;47.08;;;44.30;;
14874;SDS011;7529;48.170;17.138;2022-10-16T02:51:01;42.85;;;40.42;;
14874;SDS011;7529;48.170;17.138;2022-10-16T02:55:12;35.60;;;33.22;;
14874;SDS011;7529;48.170;17.138;2022-10-16T02:59:24;31.63;;;29.40;;
14874;SDS011;7529;48.170;17.138;2022-10-16T03:03:35;25.23;;;23.40;;
14874;SDS011;7529;48.170;17.138;2022-10-16T03:07:46;25.98;;;23.95;;
14874;SDS011;7529;48.170;17.138;2022-10-16T03:11:57;28.02;;;25.48;;
14874;SDS011;7529;48.170;17.138;2022-10-16T03:16:08;26.80;;;24.73;;
14874;SDS011;7529;48.170;17.138;2022-10-16T03:20:19;25.77;;;23.70;;
14874;SDS011;7529;48.170;17.138;2022-10-16T03:24:31;28.02;;;25.33;;
14874;SDS011;7529;48.170;17.138;2022-10-16T03:28:42;26.20;;;24.10;;
14874;SDS011;7529;48.170;17.138;2022-10-16T03:32:53;25.30;;;23.30;;
14874;SDS011;7529;48.170;17.138;2022-10-16T03:37:04;23.95;;;21.80;;
14874;SDS011;7529;48.170;17.138;2022-10-16T03:41:15;25.92;;;23.83;;
14874;SDS011;7529;48.170;17.138;2022-10-16T03:45:26;21.95;;;20.30;;
14874;SDS011;7529;48.170;17.138;2022-10-16T03:49:37;22.80;;;21.00;;
14874;SDS011;7529;48.170;17.138;2022-10-16T03:53:49;22.77;;;20.48;;
14874;SDS011;7529;48.170;17.138;2022-10-16T03:58:00;22.17;;;20.33;;
14874;SDS011;7529;48.170;17.138;2022-10-16T04:02:11;24.17;;;22.30;;
14874;SDS011;7529;48.170;17.138;2022-10-16T04:06:23;21.30;;;19.73;;
14874;SDS011;7529;48.170;17.138;2022-10-16T04:10:34;23.17;;;21.38;;
14874;SDS011;7529;48.170;17.138;2022-10-16T04:14:45;20.38;;;18.95;;
14874;SDS011;7529;48.170;17.138;2022-10-16T04:18:56;21.98;;;20.05;;
14874;SDS011;7529;48.170;17.138;2022-10-16T04:23:07;20.58;;;19.08;;
14874;SDS011;7529;48.170;17.138;2022-10-16T04:27:19;23.30;;;21.70;;
14874;SDS011;7529;48.170;17.138;2022-10-16T04:31:30;22.38;;;20.73;;
14874;SDS011;7529;48.170;17.138;2022-10-16T04:35:41;25.63;;;23.27;;
14874;SDS011;7529;48.170;17.138;2022-10-16T04:39:52;26.55;;;24.67;;
14874;SDS011;7529;48.170;17.138;2022-10-16T04:44:04;27.88;;;25.63;;
14874;SDS011;7529;48.170;17.138;2022-10-16T04:48:15;33.58;;;30.98;;
14874;SDS011;7529;48.170;17.138;2022-10-16T04:52:26;29.00;;;26.75;;
14874;SDS011;7529;48.170;17.138;2022-10-16T04:56:37;32.60;;;29.92;;
14874;SDS011;7529;48.170;17.138;2022-10-16T05:00:56;30.23;;;27.92;;
14874;SDS011;7529;48.170;17.138;2022-10-16T05:05:08;26.00;;;24.00;;
14874;SDS011;7529;48.170;17.138;2022-10-16T05:09:19;26.13;;;23.98;;
14874;SDS011;7529;48.170;17.138;2022-10-16T05:13:30;24.85;;;22.95;;
14874;SDS011;7529;48.170;17.138;2022-10-16T05:17:41;24.00;;;22.30;;
14874;SDS011;7529;48.170;17.138;2022-10-16T05:21:52;22.08;;;20.42;;
14874;SDS011;7529;48.170;17.138;2022-10-16T05:26:04;24.42;;;22.63;;
14874;SDS011;7529;48.170;17.138;2022-10-16T05:30:16;22.17;;;20.45;;
14874;SDS011;7529;48.170;17.138;2022-10-16T05:34:28;19.33;;;17.73;;
14874;SDS011;7529;48.170;17.138;2022-10-16T05:38:39;20.27;;;18.77;;
14874;SDS011;7529;48.170;17.138;2022-10-16T05:42:54;20.52;;;19.02;;
14874;SDS011;7529;48.170;17.138;2022-10-16T05:47:06;20.45;;;18.88;;
14874;SDS011;7529;48.170;17.138;2022-10-16T05:51:17;20.17;;;18.45;;
14874;SDS011;7529;48.170;17.138;2022-10-16T05:55:28;21.35;;;19.83;;
14874;SDS011;7529;48.170;17.138;2022-10-16T05:59:39;19.15;;;17.90;;
14874;SDS011;7529;48.170;17.138;2022-10-16T06:03:51;23.23;;;21.33;;
14874;SDS011;7529;48.170;17.138;2022-10-16T06:08:02;21.17;;;19.88;;
14874;SDS011;7529;48.170;17.138;2022-10-16T06:12:14;22.58;;;20.90;;
14874;SDS011;7529;48.170;17.138;2022-10-16T06:16:25;21.70;;;20.20;;
14874;SDS011;7529;48.170;17.138;2022-10-16T06:20:37;17.92;;;16.42;;
14874;SDS011;7529;48.170;17.138;2022-10-16T06:24:48;13.85;;;12.77;;
14874;SDS011;7529;48.170;17.138;2022-10-16T06:29:00;13.90;;;12.73;;
14874;SDS011;7529;48.170;17.138;2022-10-16T06:33:11;14.60;;;13.63;;
14874;SDS011;7529;48.170;17.138;2022-10-16T06:37:23;14.07;;;13.07;;
14874;SDS011;7529;48.170;17.138;2022-10-16T06:41:35;15.20;;;14.02;;
14874;SDS011;7529;48.170;17.138;2022-10-16T06:45:59;13.02;;;12.20;;
14874;SDS011;7529;48.170;17.138;2022-10-16T06:50:11;15.07;;;14.07;;
14874;SDS011;7529;48.170;17.138;2022-10-16T06:54:22;13.82;;;12.85;;
14874;SDS011;7529;48.170;17.138;2022-10-16T06:58:33;15.25;;;14.05;;
14874;SDS011;7529;48.170;17.138;2022-10-16T07:02:45;11.98;;;11.07;;
14874;SDS011;7529;48.170;17.138;2022-10-16T07:06:56;10.95;;;9.88;;
14874;SDS011;7529;48.170;17.138;2022-10-16T07:11:08;9.48;;;8.88;;
14874;SDS011;7529;48.170;17.138;2022-10-16T07:15:22;9.23;;;8.55;;
14874;SDS011;7529;48.170;17.138;2022-10-16T07:19:35;12.05;;;10.18;;
14874;SDS011;7529;48.170;17.138;2022-10-16T07:23:50;10.10;;;9.18;;
14874;SDS011;7529;48.170;17.138;2022-10-16T07:28:03;9.13;;;8.38;;
14874;SDS011;7529;48.170;17.138;2022-10-16T07:32:14;11.43;;;10.63;;
14874;SDS011;7529;48.170;17.138;2022-10-16T07:36:25;16.35;;;15.15;;
14874;SDS011;7529;48.170;17.138;2022-10-16T07:40:37;11.57;;;10.63;;
14874;SDS011;7529;48.170;17.138;2022-10-16T07:44:48;12.85;;;12.05;;
14874;SDS011;7529;48.170;17.138;2022-10-16T07:48:59;9.23;;;8.38;;
14874;SDS011;7529;48.170;17.138;2022-10-16T07:53:11;8.25;;;7.57;;
14874;SDS011;7529;48.170;17.138;2022-10-16T07:57:22;11.35;;;8.23;;
14874;SDS011;7529;48.170;17.138;2022-10-16T08:01:33;9.90;;;8.45;;
14874;SDS011;7529;48.170;17.138;2022-10-16T08:05:45;8.95;;;8.18;;
14874;SDS011;7529;48.170;17.138;2022-10-16T08:09:56;10.45;;;9.65;;
14874;SDS011;7529;48.170;17.138;2022-10-16T08:14:08;10.60;;;9.52;;
14874;SDS011;7529;48.170;17.138;2022-10-16T08:18:20;9.45;;;8.77;;
14874;SDS011;7529;48.170;17.138;2022-10-16T08:22:32;8.93;;;8.00;;
14874;SDS011;7529;48.170;17.138;2022-10-16T08:26:43;7.03;;;6.43;;
14874;SDS011;7529;48.170;17.138;2022-10-16T08:30:55;7.85;;;7.05;;
14874;SDS011;7529;48.170;17.138;2022-10-16T08:35:08;8.32;;;7.63;;
14874;SDS011;7529;48.170;17.138;2022-10-16T08:39:20;9.40;;;8.60;;
14874;SDS011;7529;48.170;17.138;2022-10-16T08:48:23;12.27;;;11.38;;
14874;SDS011;7529;48.170;17.138;2022-10-16T08:53:02;12.82;;;11.48;;
14874;SDS011;7529;48.170;17.138;2022-10-16T08:57:19;11.52;;;10.45;;
14874;SDS011;7529;48.170;17.138;2022-10-16T09:01:37;15.27;;;13.90;;
14874;SDS011;7529;48.170;17.138;2022-10-16T09:05:55;9.25;;;8.45;;
14874;SDS011;7529;48.170;17.138;2022-10-16T09:23:38;9.10;;;8.20;;
14874;SDS011;7529;48.170;17.138;2022-10-16T09:27:51;9.00;;;8.20;;
14874;SDS011;7529;48.170;17.138;2022-10-16T09:32:10;9.73;;;8.80;;
14874;SDS011;7529;48.170;17.138;2022-10-16T09:36:25;10.13;;;9.18;;
14874;SDS011;7529;48.170;17.138;2022-10-16T09:40:38;10.93;;;9.82;;
14874;SDS011;7529;48.170;17.138;2022-10-16T09:44:50;10.35;;;9.45;;
14874;SDS011;7529;48.170;17.138;2022-10-16T09:49:05;10.52;;;9.63;;
14874;SDS011;7529;48.170;17.138;2022-10-16T09:53:46;12.32;;;10.65;;
14874;SDS011;7529;48.170;17.138;2022-10-16T09:57:58;11.38;;;10.48;;
14874;SDS011;7529;48.170;17.138;2022-10-16T10:02:11;11.23;;;9.98;;
14874;SDS011;7529;48.170;17.138;2022-10-16T10:06:26;12.52;;;11.23;;
14874;SDS011;7529;48.170;17.138;2022-10-16T10:10:41;13.38;;;11.98;;
14874;SDS011;7529;48.170;17.138;2022-10-16T10:14:55;13.63;;;12.23;;
14874;SDS011;7529;48.170;17.138;2022-10-16T10:19:13;17.17;;;15.68;;
14874;SDS011;7529;48.170;17.138;2022-10-16T10:23:26;13.27;;;12.15;;
14874;SDS011;7529;48.170;17.138;2022-10-16T10:36:38;15.07;;;13.60;;
14874;SDS011;7529;48.170;17.138;2022-10-16T10:45:38;15.23;;;13.73;;
14874;SDS011;7529;48.170;17.138;2022-10-16T11:09:22;15.70;;;14.35;;
14874;SDS011;7529;48.170;17.138;2022-10-16T11:13:37;14.48;;;13.18;;
14874;SDS011;7529;48.170;17.138;2022-10-16T11:18:19;14.20;;;13.05;;
14874;SDS011;7529;48.170;17.138;2022-10-16T11:26:54;18.10;;;16.50;;
14874;SDS011;7529;48.170;17.138;2022-10-16T11:31:11;19.70;;;17.73;;
14874;SDS011;7529;48.170;17.138;2022-10-16T11:35:37;18.55;;;16.83;;
14874;SDS011;7529;48.170;17.138;2022-10-16T11:39:55;19.40;;;17.67;;
14874;SDS011;7529;48.170;17.138;2022-10-16T11:44:20;20.20;;;18.33;;
14874;SDS011;7529;48.170;17.138;2022-10-16T11:49:10;21.80;;;19.67;;
14874;SDS011;7529;48.170;17.138;2022-10-16T11:57:51;21.73;;;19.70;;
14874;SDS011;7529;48.170;17.138;2022-10-16T12:15:39;19.23;;;17.42;;
14874;SDS011;7529;48.170;17.138;2022-10-16T12:20:12;16.35;;;14.77;;
14874;SDS011;7529;48.170;17.138;2022-10-16T12:24:33;16.90;;;15.05;;
14874;SDS011;7529;48.170;17.138;2022-10-16T12:28:49;18.15;;;16.45;;
14874;SDS011;7529;48.170;17.138;2022-10-16T12:33:05;16.73;;;15.32;;
14874;SDS011;7529;48.170;17.138;2022-10-16T12:37:44;21.05;;;14.75;;
14874;SDS011;7529;48.170;17.138;2022-10-16T12:50:45;14.10;;;12.80;;
14874;SDS011;7529;48.170;17.138;2022-10-16T12:54:57;15.23;;;12.73;;
14874;SDS011;7529;48.170;17.138;2022-10-16T12:59:24;13.63;;;12.23;;
14874;SDS011;7529;48.170;17.138;2022-10-16T13:04:14;13.68;;;12.45;;
14874;SDS011;7529;48.170;17.138;2022-10-16T13:17:58;14.48;;;12.63;;
14874;SDS011;7529;48.170;17.138;2022-10-16T13:22:51;17.98;;;13.57;;
14874;SDS011;7529;48.170;17.138;2022-10-16T13:27:23;15.05;;;13.50;;
14874;SDS011;7529;48.170;17.138;2022-10-16T13:31:42;16.00;;;14.40;;
14874;SDS011;7529;48.170;17.138;2022-10-16T13:35:54;17.05;;;15.35;;
14874;SDS011;7529;48.170;17.138;2022-10-16T13:40:27;19.02;;;17.23;;
14874;SDS011;7529;48.170;17.138;2022-10-16T13:44:42;18.67;;;17.05;;
14874;SDS011;7529;48.170;17.138;2022-10-16T13:49:05;20.77;;;18.88;;
14874;SDS011;7529;48.170;17.138;2022-10-16T13:53:26;21.13;;;19.30;;
14874;SDS011;7529;48.170;17.138;2022-10-16T13:57:40;25.33;;;23.25;;
14874;SDS011;7529;48.170;17.138;2022-10-16T14:01:53;31.23;;;29.02;;
14874;SDS011;7529;48.170;17.138;2022-10-16T14:06:06;32.92;;;30.65;;
14874;SDS011;7529;48.170;17.138;2022-10-16T14:10:34;34.83;;;32.50;;
14874;SDS011;7529;48.170;17.138;2022-10-16T14:14:47;30.50;;;28.38;;
14874;SDS011;7529;48.170;17.138;2022-10-16T14:19:01;28.90;;;26.83;;
14874;SDS011;7529;48.170;17.138;2022-10-16T14:23:29;28.13;;;26.15;;
14874;SDS011;7529;48.170;17.138;2022-10-16T14:27:41;29.70;;;27.58;;
14874;SDS011;7529;48.170;17.138;2022-10-16T14:32:03;46.30;;;43.25;;
14874;SDS011;7529;48.170;17.138;2022-10-16T14:36:15;35.70;;;33.10;;
14874;SDS011;7529;48.170;17.138;2022-10-16T14:40:30;36.47;;;33.90;;
14874;SDS011;7529;48.170;17.138;2022-10-16T14:44:43;29.55;;;27.48;;
14874;SDS011;7529;48.170;17.138;2022-10-16T14:49:02;28.40;;;26.27;;
14874;SDS011;7529;48.170;17.138;2022-10-16T14:53:26;27.27;;;25.38;;
14874;SDS011;7529;48.170;17.138;2022-10-16T14:57:38;28.55;;;26.23;;
14874;SDS011;7529;48.170;17.138;2022-10-16T15:01:50;25.02;;;22.70;;
14874;SDS011;7529;48.170;17.138;2022-10-16T15:06:01;24.75;;;22.95;;
14874;SDS011;7529;48.170;17.138;2022-10-16T15:10:13;23.98;;;22.00;;
14874;SDS011;7529;48.170;17.138;2022-10-16T15:14:25;21.80;;;20.00;;
14874;SDS011;7529;48.170;17.138;2022-10-16T15:18:36;22.20;;;20.60;;
14874;SDS011;7529;48.170;17.138;2022-10-16T15:22:48;21.27;;;19.42;;
14874;SDS011;7529;48.170;17.138;2022-10-16T15:26:59;21.38;;;19.38;;
14874;SDS011;7529;48.170;17.138;2022-10-16T15:31:10;27.70;;;25.83;;
14874;SDS011;7529;48.170;17.138;2022-10-16T15:35:21;37.65;;;35.15;;
14874;SDS011;7529;48.170;17.138;2022-10-16T15:39:33;48.00;;;45.10;;
14874;SDS011;7529;48.170;17.138;2022-10-16T15:43:44;33.95;;;31.98;;
14874;SDS011;7529;48.170;17.138;2022-10-16T15:48:00;32.08;;;30.23;;
14874;SDS011;7529;48.170;17.138;2022-10-16T15:52:11;41.42;;;39.22;;
14874;SDS011;7529;48.170;17.138;2022-10-16T15:56:22;35.83;;;33.75;;
14874;SDS011;7529;48.170;17.138;2022-10-16T16:00:35;33.28;;;31.42;;
14874;SDS011;7529;48.170;17.138;2022-10-16T16:04:46;43.47;;;41.35;;
14874;SDS011;7529;48.170;17.138;2022-10-16T16:08:58;54.50;;;51.42;;
14874;SDS011;7529;48.170;17.138;2022-10-16T16:13:10;60.25;;;57.42;;
14874;SDS011;7529;48.170;17.138;2022-10-16T16:17:21;65.95;;;62.50;;
14874;SDS011;7529;48.170;17.138;2022-10-16T16:21:33;88.30;;;84.00;;
14874;SDS011;7529;48.170;17.138;2022-10-16T16:25:45;92.28;;;87.93;;
14874;SDS011;7529;48.170;17.138;2022-10-16T16:30:13;113.03;;;107.35;;
14874;SDS011;7529;48.170;17.138;2022-10-16T16:34:24;114.07;;;108.95;;
14874;SDS011;7529;48.170;17.138;2022-10-16T16:38:38;131.60;;;125.55;;
14874;SDS011;7529;48.170;17.138;2022-10-16T16:42:49;110.47;;;105.55;;
14874;SDS011;7529;48.170;17.138;2022-10-16T16:47:01;93.70;;;89.45;;
14874;SDS011;7529;48.170;17.138;2022-10-16T16:51:14;90.22;;;86.18;;
14874;SDS011;7529;48.170;17.138;2022-10-16T16:55:28;83.55;;;79.57;;
14874;SDS011;7529;48.170;17.138;2022-10-16T16:59:39;82.78;;;78.88;;
14874;SDS011;7529;48.170;17.138;2022-10-16T17:03:51;48.63;;;46.22;;
14874;SDS011;7529;48.170;17.138;2022-10-16T17:08:08;53.83;;;51.08;;
14874;SDS011;7529;48.170;17.138;2022-10-16T17:12:19;44.83;;;42.38;;
14874;SDS011;7529;48.170;17.138;2022-10-16T17:16:31;39.05;;;36.85;;
14874;SDS011;7529;48.170;17.138;2022-10-16T17:20:45;47.45;;;45.03;;
14874;SDS011;7529;48.170;17.138;2022-10-16T17:24:57;33.53;;;31.50;;
14874;SDS011;7529;48.170;17.138;2022-10-16T17:29:09;27.15;;;25.48;;
14874;SDS011;7529;48.170;17.138;2022-10-16T17:33:22;21.60;;;20.17;;
14874;SDS011;7529;48.170;17.138;2022-10-16T17:37:35;18.65;;;17.25;;
14874;SDS011;7529;48.170;17.138;2022-10-16T17:41:47;19.60;;;18.27;;
14874;SDS011;7529;48.170;17.138;2022-10-16T17:46:00;26.63;;;24.40;;
14874;SDS011;7529;48.170;17.138;2022-10-16T17:50:13;19.70;;;17.80;;
14874;SDS011;7529;48.170;17.138;2022-10-16T17:54:24;16.23;;;14.93;;
14874;SDS011;7529;48.170;17.138;2022-10-16T17:58:36;15.48;;;14.18;;
14874;SDS011;7529;48.170;17.138;2022-10-16T18:02:48;16.70;;;15.57;;
14874;SDS011;7529;48.170;17.138;2022-10-16T18:07:00;16.00;;;14.43;;
14874;SDS011;7529;48.170;17.138;2022-10-16T18:11:11;18.45;;;14.00;;
14874;SDS011;7529;48.170;17.138;2022-10-16T18:15:23;14.07;;;13.05;;
14874;SDS011;7529;48.170;17.138;2022-10-16T18:19:34;14.25;;;13.18;;
14874;SDS011;7529;48.170;17.138;2022-10-16T18:23:45;19.38;;;17.80;;
14874;SDS011;7529;48.170;17.138;2022-10-16T18:27:57;16.13;;;14.85;;
14874;SDS011;7529;48.170;17.138;2022-10-16T18:32:09;19.13;;;17.40;;
14874;SDS011;7529;48.170;17.138;2022-10-16T18:36:21;19.13;;;17.65;;
14874;SDS011;7529;48.170;17.138;2022-10-16T18:40:36;39.55;;;36.40;;
14874;SDS011;7529;48.170;17.138;2022-10-16T18:44:47;36.90;;;34.50;;
14874;SDS011;7529;48.170;17.138;2022-10-16T18:48:58;34.00;;;31.83;;
14874;SDS011;7529;48.170;17.138;2022-10-16T18:53:11;29.67;;;27.83;;
14874;SDS011;7529;48.170;17.138;2022-10-16T18:57:22;38.13;;;35.47;;
14874;SDS011;7529;48.170;17.138;2022-10-16T19:01:34;75.80;;;71.68;;
14874;SDS011;7529;48.170;17.138;2022-10-16T19:05:47;96.85;;;91.07;;
14874;SDS011;7529;48.170;17.138;2022-10-16T19:09:59;97.22;;;92.07;;
14874;SDS011;7529;48.170;17.138;2022-10-16T19:14:10;108.40;;;102.47;;
14874;SDS011;7529;48.170;17.138;2022-10-16T19:18:22;54.42;;;51.30;;
14874;SDS011;7529;48.170;17.138;2022-10-16T19:22:34;116.72;;;110.22;;
14874;SDS011;7529;48.170;17.138;2022-10-16T19:27:03;125.03;;;118.45;;
14874;SDS011;7529;48.170;17.138;2022-10-16T19:31:17;90.15;;;85.95;;
14874;SDS011;7529;48.170;17.138;2022-10-16T19:35:31;117.15;;;111.38;;
14874;SDS011;7529;48.170;17.138;2022-10-16T19:39:43;134.48;;;127.30;;
14874;SDS011;7529;48.170;17.138;2022-10-16T19:43:59;322.83;;;298.98;;
14874;SDS011;7529;48.170;17.138;2022-10-16T19:48:12;355.08;;;327.90;;
14874;SDS011;7529;48.170;17.138;2022-10-16T19:52:24;327.60;;;302.13;;
14874;SDS011;7529;48.170;17.138;2022-10-16T19:56:35;347.83;;;320.17;;
14874;SDS011;7529;48.170;17.138;2022-10-16T20:00:46;318.70;;;293.35;;
14874;SDS011;7529;48.170;17.138;2022-10-16T20:04:58;327.48;;;302.95;;
14874;SDS011;7529;48.170;17.138;2022-10-16T20:09:10;315.45;;;291.20;;
14874;SDS011;7529;48.170;17.138;2022-10-16T20:13:21;333.60;;;306.73;;
14874;SDS011;7529;48.170;17.138;2022-10-16T20:17:33;277.75;;;257.98;;
14874;SDS011;7529;48.170;17.138;2022-10-16T20:21:44;277.70;;;258.15;;
14874;SDS011;7529;48.170;17.138;2022-10-16T20:25:56;273.77;;;255.43;;
14874;SDS011;7529;48.170;17.138;2022-10-16T20:30:10;274.23;;;255.45;;
14874;SDS011;7529;48.170;17.138;2022-10-16T20:34:22;250.07;;;233.50;;
14874;SDS011;7529;48.170;17.138;2022-10-16T20:38:33;259.65;;;242.50;;
14874;SDS011;7529;48.170;17.138;2022-10-16T20:42:47;269.65;;;251.43;;
14874;SDS011;7529;48.170;17.138;2022-10-16T20:46:58;257.00;;;239.82;;
14874;SDS011;7529;48.170;17.138;2022-10-16T20:51:11;232.40;;;216.75;;
14874;SDS011;7529;48.170;17.138;2022-10-16T20:55:25;189.25;;;176.90;;
14874;SDS011;7529;48.170;17.138;2022-10-16T20:59:36;203.75;;;190.07;;
14874;SDS011;7529;48.170;17.138;2022-10-16T21:03:49;45.20;;;42.58;;
14874;SDS011;7529;48.170;17.138;2022-10-16T21:08:08;203.38;;;189.70;;
14874;SDS011;7529;48.170;17.138;2022-10-16T21:12:19;165.32;;;154.35;;
14874;SDS011;7529;48.170;17.138;2022-10-16T21:16:36;229.27;;;213.60;;
14874;SDS011;7529;48.170;17.138;2022-10-16T21:20:48;240.95;;;224.05;;
14874;SDS011;7529;48.170;17.138;2022-10-16T21:24:59;231.50;;;214.90;;
14874;SDS011;7529;48.170;17.138;2022-10-16T21:29:11;250.63;;;232.45;;
14874;SDS011;7529;48.170;17.138;2022-10-16T21:33:23;233.05;;;215.98;;
14874;SDS011;7529;48.170;17.138;2022-10-16T21:37:34;234.25;;;216.43;;
14874;SDS011;7529;48.170;17.138;2022-10-16T21:41:47;239.57;;;222.55;;
14874;SDS011;7529;48.170;17.138;2022-10-16T21:45:59;246.48;;;228.18;;
14874;SDS011;7529;48.170;17.138;2022-10-16T21:50:11;267.02;;;246.90;;
14874;SDS011;7529;48.170;17.138;2022-10-16T21:54:22;261.88;;;243.20;;
14874;SDS011;7529;48.170;17.138;2022-10-16T21:58:34;267.05;;;247.77;;
14874;SDS011;7529;48.170;17.138;2022-10-16T22:02:45;274.80;;;254.95;;
14874;SDS011;7529;48.170;17.138;2022-10-16T22:06:57;33.22;;;30.85;;
14874;SDS011;7529;48.170;17.138;2022-10-16T22:11:10;248.15;;;231.05;;
14874;SDS011;7529;48.170;17.138;2022-10-16T22:15:23;252.93;;;234.55;;
14874;SDS011;7529;48.170;17.138;2022-10-16T22:19:35;249.38;;;231.00;;
14874;SDS011;7529;48.170;17.138;2022-10-16T22:23:47;35.20;;;32.90;;
14874;SDS011;7529;48.170;17.138;2022-10-16T22:27:58;225.80;;;209.90;;
14874;SDS011;7529;48.170;17.138;2022-10-16T22:32:10;262.45;;;243.75;;
14874;SDS011;7529;48.170;17.138;2022-10-16T22:36:21;255.85;;;237.23;;
14874;SDS011;7529;48.170;17.138;2022-10-16T22:40:33;256.50;;;238.30;;
14874;SDS011;7529;48.170;17.138;2022-10-16T22:44:45;251.00;;;233.40;;
14874;SDS011;7529;48.170;17.138;2022-10-16T22:48:57;260.30;;;242.32;;
14874;SDS011;7529;48.170;17.138;2022-10-16T22:53:08;249.88;;;232.35;;
14874;SDS011;7529;48.170;17.138;2022-10-16T22:57:20;255.32;;;237.32;;
14874;SDS011;7529;48.170;17.138;2022-10-16T23:01:33;256.40;;;238.55;;
14874;SDS011;7529;48.170;17.138;2022-10-16T23:05:46;250.32;;;232.77;;
14874;SDS011;7529;48.170;17.138;2022-10-16T23:09:58;249.13;;;232.40;;
14874;SDS011;7529;48.170;17.138;2022-10-16T23:14:10;265.60;;;247.05;;
14874;SDS011;7529;48.170;17.138;2022-10-16T23:18:21;277.63;;;258.67;;
14874;SDS011;7529;48.170;17.138;2022-10-16T23:22:33;282.25;;;263.23;;
14874;SDS011;7529;48.170;17.138;2022-10-16T23:26:44;279.80;;;261.38;;
14874;SDS011;7529;48.170;17.138;2022-10-16T23:30:56;277.80;;;259.52;;
14874;SDS011;7529;48.170;17.138;2022-10-16T23:35:08;275.35;;;256.58;;
14874;SDS011;7529;48.170;17.138;2022-10-16T23:39:19;266.98;;;248.55;;
14874;SDS011;7529;48.170;17.138;2022-10-16T23:43:31;256.13;;;239.23;;
14874;SDS011;7529;48.170;17.138;2022-10-16T23:47:42;266.23;;;247.65;;
14874;SDS011;7529;48.170;17.138;2022-10-16T23:51:54;278.40;;;259.73;;
14874;SDS011;7529;48.170;17.138;2022-10-16T23:56:06;256.45;;;239.35;;
